createdAt,value
2023-03-27T00:01:13.378Z,9.01
2023-03-27T00:03:41.493Z,8.94
2023-03-27T00:06:11.570Z,9.07
2023-03-27T00:08:39.451Z,8.93
2023-03-27T00:11:07.429Z,8.83
2023-03-27T00:13:49.199Z,8.91
2023-03-27T00:16:18.666Z,9.08
2023-03-27T00:18:46.423Z,9.05
2023-03-27T00:21:14.143Z,9.00
2023-03-27T00:23:42.091Z,8.83
2023-03-27T00:26:09.787Z,8.74
2023-03-27T00:28:39.012Z,8.72
2023-03-27T00:31:11.028Z,8.68
2023-03-27T00:33:39.636Z,8.78
2023-03-27T00:36:08.377Z,8.82
2023-03-27T00:38:36.436Z,8.82
2023-03-27T00:41:03.828Z,8.73
2023-03-27T00:43:33.177Z,8.75
2023-03-27T00:46:05.883Z,8.82
2023-03-27T00:48:36.834Z,8.67
2023-03-27T00:51:05.725Z,8.73
2023-03-27T00:53:34.163Z,8.60
2023-03-27T00:56:05.673Z,8.65
2023-03-27T00:58:39.697Z,8.59
2023-03-27T01:01:10.300Z,8.62
2023-03-27T01:03:39.170Z,8.56
2023-03-27T01:06:08.147Z,8.62
2023-03-27T01:08:36.893Z,8.60
2023-03-27T01:11:15.177Z,8.48
2023-03-27T01:13:50.596Z,8.45
2023-03-27T01:16:26.632Z,8.39
2023-03-27T01:19:16.215Z,8.50
2023-03-27T01:22:20.264Z,8.52
2023-03-27T01:25:24.417Z,8.42
2023-03-27T01:28:21.900Z,8.42
2023-03-27T01:30:55.962Z,8.44
2023-03-27T01:33:44.163Z,8.50
2023-03-27T01:36:36.860Z,8.48
2023-03-27T01:39:27.656Z,8.40
2023-03-27T01:42:05.572Z,8.39
2023-03-27T01:44:45.443Z,8.46
2023-03-27T01:47:21.906Z,8.52
2023-03-27T01:49:54.563Z,8.49
2023-03-27T01:52:27.515Z,8.44
2023-03-27T01:55:00.031Z,8.56
2023-03-27T01:57:32.722Z,8.56
2023-03-27T02:00:17.447Z,8.45
2023-03-27T02:02:51.133Z,8.46
2023-03-27T02:05:26.458Z,8.41
2023-03-27T02:07:59.635Z,8.38
2023-03-27T02:10:35.446Z,8.32
2023-03-27T02:13:08.679Z,8.37
2023-03-27T02:15:39.940Z,8.36
2023-03-27T02:18:12.456Z,8.43
2023-03-27T02:20:41.633Z,8.33
2023-03-27T02:23:09.623Z,8.23
2023-03-27T02:25:40.648Z,8.15
2023-03-27T02:28:34.944Z,8.00
2023-03-27T02:31:32.601Z,7.89
2023-03-27T02:34:17.967Z,7.74
2023-03-27T02:36:54.926Z,7.64
2023-03-27T02:39:30.690Z,7.65
2023-03-27T02:42:06.822Z,7.52
2023-03-27T02:44:46.821Z,7.36
2023-03-27T02:47:19.831Z,7.17
2023-03-27T02:49:50.958Z,6.94
2023-03-27T02:52:24.113Z,6.83
2023-03-27T02:54:57.390Z,6.71
2023-03-27T02:57:29.779Z,6.60
2023-03-27T03:00:00.674Z,6.48
2023-03-27T03:02:32.276Z,6.46
2023-03-27T03:05:06.359Z,6.37
2023-03-27T03:07:33.934Z,6.39
2023-03-27T03:10:01.841Z,6.21
2023-03-27T03:12:30.790Z,5.90
2023-03-27T03:14:58.550Z,5.76
2023-03-27T03:17:26.058Z,5.97
2023-03-27T03:19:53.978Z,6.15
2023-03-27T03:22:21.364Z,5.95
2023-03-27T03:24:49.796Z,6.01
2023-03-27T03:27:17.391Z,5.99
2023-03-27T03:29:46.548Z,5.76
2023-03-27T03:32:14.010Z,5.58
2023-03-27T03:34:42.342Z,5.52
2023-03-27T03:37:09.824Z,5.35
2023-03-27T03:39:37.937Z,5.19
2023-03-27T03:42:05.521Z,4.96
2023-03-27T03:44:33.371Z,4.98
2023-03-27T03:47:02.439Z,4.84
2023-03-27T03:49:30.260Z,4.67
2023-03-27T03:52:04.231Z,4.64
2023-03-27T03:54:33.344Z,4.44
2023-03-27T03:57:00.815Z,4.30
2023-03-27T03:59:28.851Z,4.26
2023-03-27T04:01:56.193Z,4.22
2023-03-27T04:04:25.486Z,4.11
2023-03-27T04:06:53.067Z,3.96
2023-03-27T04:09:21.263Z,3.93
2023-03-27T04:11:48.622Z,3.90
2023-03-27T04:14:16.353Z,4.03
2023-03-27T04:16:43.826Z,3.94
2023-03-27T04:19:11.910Z,3.95
2023-03-27T04:21:40.768Z,3.95
2023-03-27T04:24:08.758Z,3.88
2023-03-27T04:26:36.272Z,3.97
2023-03-27T04:29:04.252Z,4.01
2023-03-27T04:31:31.655Z,4.00
2023-03-27T04:33:59.915Z,3.95
2023-03-27T04:36:29.496Z,4.02
2023-03-27T04:38:59.918Z,4.05
2023-03-27T04:41:27.639Z,4.00
2023-03-27T04:43:55.971Z,4.15
2023-03-27T04:46:23.296Z,4.21
2023-03-27T04:48:51.354Z,4.16
2023-03-27T04:51:18.751Z,4.06
2023-03-27T04:53:46.635Z,3.81
2023-03-27T04:56:15.507Z,3.86
2023-03-27T04:58:43.303Z,3.72
2023-03-27T05:01:10.936Z,3.59
2023-03-27T05:03:39.466Z,3.44
2023-03-27T05:06:07.570Z,3.42
2023-03-27T05:08:35.949Z,3.32
2023-03-27T05:11:03.542Z,3.41
2023-03-27T05:13:33.239Z,3.19
2023-03-27T05:16:00.799Z,3.02
2023-03-27T05:18:29.270Z,2.86
2023-03-27T05:20:57.030Z,2.67
2023-03-27T05:23:24.914Z,2.62
2023-03-27T05:26:00.325Z,2.63
2023-03-27T05:28:28.922Z,2.63
2023-03-27T05:30:58.423Z,2.63
2023-03-27T05:33:27.327Z,2.53
2023-03-27T05:35:54.908Z,2.45
2023-03-27T05:38:23.052Z,2.33
2023-03-27T05:40:50.411Z,2.23
2023-03-27T05:43:18.639Z,2.35
2023-03-27T05:45:46.258Z,2.14
2023-03-27T05:48:15.629Z,2.19
2023-03-27T05:50:42.951Z,2.13
2023-03-27T05:53:10.763Z,2.20
2023-03-27T05:55:39.162Z,2.13
2023-03-27T05:58:07.284Z,2.02
2023-03-27T06:00:34.800Z,1.83
2023-03-27T06:03:03.663Z,1.68
2023-03-27T06:05:32.711Z,1.84
2023-03-27T06:08:00.580Z,1.83
2023-03-27T06:10:30.286Z,1.89
2023-03-27T06:12:59.549Z,1.83
2023-03-27T06:15:27.129Z,1.80
2023-03-27T06:17:55.084Z,1.91
2023-03-27T06:20:22.966Z,2.10
2023-03-27T06:22:54.524Z,2.22
2023-03-27T06:25:23.157Z,2.40
2023-03-27T06:27:51.179Z,2.45
2023-03-27T06:30:21.284Z,2.40
2023-03-27T06:32:50.955Z,2.35
2023-03-27T06:35:19.674Z,2.24
2023-03-27T06:37:50.777Z,2.28
2023-03-27T06:40:21.747Z,2.22
2023-03-27T06:42:50.631Z,2.27
2023-03-27T06:45:18.182Z,2.34
2023-03-27T06:47:54.674Z,2.42
2023-03-27T06:50:25.432Z,2.51
2023-03-27T06:52:53.859Z,2.51
2023-03-27T06:55:24.591Z,2.52
2023-03-27T06:57:54.048Z,2.42
2023-03-27T07:00:24.364Z,2.44
2023-03-27T07:02:55.155Z,2.44
2023-03-27T07:05:23.030Z,2.37
2023-03-27T07:07:51.556Z,2.40
2023-03-27T07:10:19.661Z,2.46
2023-03-27T07:12:50.225Z,2.49
2023-03-27T07:15:18.852Z,2.43
2023-03-27T07:17:53.629Z,2.60
2023-03-27T07:20:21.373Z,2.48
2023-03-27T07:22:49.411Z,2.43
2023-03-27T07:25:17.064Z,2.38
2023-03-27T07:27:45.014Z,2.38
2023-03-27T07:30:15.107Z,2.47
2023-03-27T07:32:43.852Z,2.51
2023-03-27T07:35:12.034Z,2.44
2023-03-27T07:37:40.098Z,2.50
2023-03-27T07:40:09.199Z,2.57
2023-03-27T07:42:39.374Z,2.76
2023-03-27T07:45:07.726Z,2.72
2023-03-27T07:47:37.161Z,2.78
2023-03-27T07:50:05.929Z,2.81
2023-03-27T07:52:33.771Z,2.82
2023-03-27T07:55:01.370Z,2.83
2023-03-27T07:57:29.419Z,2.74
2023-03-27T07:59:56.876Z,2.77
2023-03-27T08:02:24.692Z,2.94
2023-03-27T08:04:53.915Z,2.99
2023-03-27T08:07:21.746Z,3.17
2023-03-27T08:09:49.308Z,3.34
2023-03-27T08:12:19.777Z,3.09
2023-03-27T08:14:47.272Z,3.29
2023-03-27T08:17:16.648Z,3.16
2023-03-27T08:19:45.263Z,3.17
2023-03-27T08:22:14.638Z,3.13
2023-03-27T08:24:42.115Z,3.17
2023-03-27T08:27:10.131Z,3.18
2023-03-27T08:29:37.625Z,3.21
2023-03-27T08:32:06.947Z,3.30
2023-03-27T08:34:34.527Z,3.28
2023-03-27T08:37:02.444Z,3.46
2023-03-27T08:39:31.294Z,3.46
2023-03-27T08:42:00.692Z,3.63
2023-03-27T08:44:30.957Z,3.69
2023-03-27T08:47:03.351Z,3.44
2023-03-27T08:49:34.592Z,3.42
2023-03-27T08:52:08.959Z,3.40
2023-03-27T08:54:39.590Z,3.53
2023-03-27T08:57:17.902Z,3.56
2023-03-27T08:59:46.255Z,3.54
2023-03-27T09:02:28.733Z,3.46
2023-03-27T09:05:01.542Z,3.47
2023-03-27T09:07:34.555Z,3.36
2023-03-27T09:10:12.773Z,3.46
2023-03-27T09:12:54.025Z,3.45
2023-03-27T09:15:24.999Z,3.25
2023-03-27T09:17:58.179Z,3.26
2023-03-27T09:20:28.573Z,3.46
2023-03-27T09:23:01.563Z,3.38
2023-03-27T09:25:35.010Z,3.41
2023-03-27T09:28:03.088Z,3.44
2023-03-27T09:30:32.261Z,3.60
2023-03-27T09:33:03.972Z,3.64
2023-03-27T09:35:32.554Z,3.62
2023-03-27T09:38:02.379Z,3.62
2023-03-27T09:40:43.101Z,3.58
2023-03-27T09:43:17.345Z,3.70
2023-03-27T09:45:47.937Z,3.90
2023-03-27T09:48:24.981Z,4.18
2023-03-27T09:50:52.372Z,4.25
2023-03-27T09:53:21.502Z,4.29
2023-03-27T09:56:05.984Z,4.43
2023-03-27T09:58:37.358Z,4.29
2023-03-27T10:01:11.651Z,4.21
2023-03-27T10:03:41.631Z,4.21
2023-03-27T10:06:13.682Z,4.19
2023-03-27T10:08:45.381Z,4.29
2023-03-27T10:11:18.103Z,4.28
2023-03-27T10:13:47.566Z,4.42
2023-03-27T10:16:17.523Z,4.53
2023-03-27T10:18:48.462Z,4.56
2023-03-27T10:21:23.669Z,4.51
2023-03-27T10:23:51.951Z,4.29
2023-03-27T10:26:27.153Z,4.35
2023-03-27T10:29:00.132Z,4.15
2023-03-27T10:31:31.443Z,4.21
2023-03-27T10:34:02.277Z,4.40
2023-03-27T10:36:33.695Z,4.38
2023-03-27T10:39:05.297Z,4.27
2023-03-27T10:41:36.034Z,4.21
2023-03-27T10:44:13.918Z,4.32
2023-03-27T10:46:42.515Z,4.51
2023-03-27T10:49:22.971Z,4.70
2023-03-27T10:51:55.347Z,4.88
2023-03-27T10:54:31.275Z,5.17
2023-03-27T10:57:05.837Z,5.65
2023-03-27T10:59:42.125Z,5.72
2023-03-27T11:02:16.174Z,5.53
2023-03-27T11:04:50.099Z,5.50
2023-03-27T11:07:23.801Z,5.38
2023-03-27T11:09:59.158Z,5.20
2023-03-27T11:12:31.740Z,4.96
2023-03-27T11:15:03.883Z,5.27
2023-03-27T11:17:39.630Z,5.57
2023-03-27T11:20:17.850Z,5.57
2023-03-27T11:22:50.535Z,5.44
2023-03-27T11:25:24.653Z,5.24
2023-03-27T11:28:01.506Z,5.31
2023-03-27T11:30:36.901Z,5.34
2023-03-27T11:33:27.846Z,5.25
2023-03-27T11:36:05.496Z,5.12
2023-03-27T11:38:37.635Z,4.97
2023-03-27T11:41:05.598Z,4.96
2023-03-27T11:43:38.947Z,5.41
2023-03-27T11:46:21.935Z,5.64
2023-03-27T11:49:04.131Z,5.83
2023-03-27T11:51:48.988Z,5.65
2023-03-27T11:54:31.140Z,5.41
2023-03-27T11:57:02.747Z,5.52
2023-03-27T11:59:58.291Z,5.41
2023-03-27T12:02:57.137Z,5.92
2023-03-27T12:05:37.709Z,6.50
2023-03-27T12:08:13.019Z,6.98
2023-03-27T12:10:41.343Z,7.03
2023-03-27T12:13:49.907Z,6.80
2023-03-27T12:16:48.612Z,6.32
2023-03-27T12:22:22.562Z,6.31
2023-03-27T12:25:09.216Z,6.24
2023-03-27T12:27:51.477Z,6.18
2023-03-27T12:30:28.254Z,6.10
2023-03-27T12:33:42.894Z,6.18
2023-03-27T12:36:17.087Z,6.39
2023-03-27T12:38:45.170Z,6.41
2023-03-27T12:41:21.781Z,6.31
2023-03-27T12:43:55.217Z,6.18
2023-03-27T12:46:35.688Z,6.11
2023-03-27T12:49:19.317Z,6.08
2023-03-27T12:52:03.926Z,6.14
2023-03-27T12:54:32.396Z,6.50
2023-03-27T12:57:02.655Z,6.95
2023-03-27T12:59:32.810Z,7.12
2023-03-27T13:02:41.509Z,7.11
2023-03-27T13:05:50.841Z,6.92
2023-03-27T13:08:45.198Z,6.58
2023-03-27T13:11:24.116Z,6.16
2023-03-27T13:14:25.765Z,6.45
2023-03-27T13:17:07.397Z,7.06
2023-03-27T13:19:45.714Z,7.84
2023-03-27T13:22:27.717Z,7.90
2023-03-27T13:25:17.616Z,7.78
2023-03-27T13:28:08.263Z,7.83
2023-03-27T13:30:40.351Z,8.04
2023-03-27T13:33:14.850Z,8.06
2023-03-27T13:35:53.634Z,8.01
2023-03-27T13:38:46.691Z,7.54
2023-03-27T13:41:41.371Z,7.07
2023-03-27T13:44:12.646Z,6.81
2023-03-27T13:46:47.357Z,6.91
2023-03-27T13:49:36.702Z,6.66
2023-03-27T13:52:33.701Z,6.57
2023-03-27T13:55:26.446Z,6.39
2023-03-27T13:58:09.073Z,6.77
2023-03-27T14:00:52.879Z,6.80
2023-03-27T14:03:42.837Z,6.77
2023-03-27T14:06:47.310Z,6.91
2023-03-27T14:09:24.052Z,7.40
2023-03-27T14:12:02.813Z,7.71
2023-03-27T14:14:52.925Z,7.64
2023-03-27T14:17:35.627Z,7.10
2023-03-27T14:20:24.500Z,6.96
2023-03-27T14:22:55.759Z,6.67
2023-03-27T14:25:27.948Z,6.51
2023-03-27T14:27:56.456Z,6.45
2023-03-27T14:30:28.331Z,6.34
2023-03-27T14:32:57.124Z,6.27
2023-03-27T14:35:34.338Z,6.31
2023-03-27T14:38:04.383Z,6.62
2023-03-27T14:40:34.216Z,7.04
2023-03-27T14:43:02.986Z,6.99
2023-03-27T14:45:35.896Z,6.60
2023-03-27T14:48:07.368Z,6.33
2023-03-27T14:50:37.255Z,6.34
2023-03-27T14:53:08.824Z,6.17
2023-03-27T14:55:38.792Z,5.99
2023-03-27T14:58:11.505Z,6.01
2023-03-27T15:00:42.701Z,5.73
2023-03-27T15:03:14.646Z,5.56
2023-03-27T15:06:01.585Z,5.57
2023-03-27T15:08:29.331Z,5.52
2023-03-27T15:10:57.913Z,5.43
2023-03-27T15:13:27.060Z,5.43
2023-03-27T15:15:59.427Z,5.48
2023-03-27T15:18:32.741Z,5.37
2023-03-27T15:21:07.156Z,5.45
2023-03-27T15:23:40.550Z,5.56
2023-03-27T15:26:15.336Z,5.48
2023-03-27T15:28:47.570Z,5.37
2023-03-27T15:31:17.882Z,5.52
2023-03-27T15:33:53.627Z,5.66
2023-03-27T15:36:26.547Z,5.82
2023-03-27T15:38:54.885Z,6.00
2023-03-27T15:41:42.817Z,5.97
2023-03-27T15:44:15.831Z,5.79
2023-03-27T15:46:51.510Z,5.63
2023-03-27T15:49:21.225Z,5.68
2023-03-27T15:51:49.618Z,5.80
2023-03-27T15:54:35.920Z,5.90
2023-03-27T15:57:09.572Z,5.87
2023-03-27T15:59:51.745Z,5.73
2023-03-27T16:02:25.725Z,5.77
2023-03-27T16:04:56.234Z,5.67
2023-03-27T16:07:27.697Z,5.57
2023-03-27T16:09:57.312Z,5.56
2023-03-27T16:12:32.645Z,5.47
2023-03-27T16:15:01.393Z,5.32
2023-03-27T16:17:37.759Z,5.22
2023-03-27T16:20:33.977Z,5.14
2023-03-27T16:23:01.839Z,5.17
2023-03-27T16:25:31.978Z,5.20
2023-03-27T16:27:59.967Z,5.31
2023-03-27T16:30:32.666Z,5.31
2023-03-27T16:33:03.606Z,5.24
2023-03-27T16:35:31.823Z,5.33
2023-03-27T16:38:00.373Z,5.35
2023-03-27T16:40:28.373Z,5.42
2023-03-27T16:42:56.388Z,5.35
2023-03-27T16:45:24.008Z,5.31
2023-03-27T16:47:53.266Z,5.30
2023-03-27T16:50:25.362Z,5.16
2023-03-27T16:52:55.671Z,5.20
2023-03-27T16:55:23.385Z,5.17
2023-03-27T16:57:51.305Z,5.22
2023-03-27T17:00:19.707Z,5.01
2023-03-27T17:02:47.885Z,5.00
2023-03-27T17:05:16.080Z,5.01
2023-03-27T17:07:45.431Z,5.03
2023-03-27T17:10:12.978Z,5.07
2023-03-27T17:12:40.853Z,5.12
2023-03-27T17:15:09.106Z,5.05
2023-03-27T17:17:37.188Z,4.99
2023-03-27T17:20:06.324Z,4.92
2023-03-27T17:22:34.958Z,4.85
2023-03-27T17:25:05.003Z,4.82
2023-03-27T17:27:33.975Z,4.64
2023-03-27T17:30:01.724Z,4.64
2023-03-27T17:32:29.926Z,4.79
2023-03-27T17:34:57.402Z,4.68
2023-03-27T17:37:25.276Z,4.61
2023-03-27T17:39:52.683Z,4.41
2023-03-27T17:42:22.800Z,4.28
2023-03-27T17:44:50.290Z,4.23
2023-03-27T17:47:18.493Z,4.25
2023-03-27T17:49:46.154Z,4.17
2023-03-27T17:52:14.217Z,3.84
2023-03-27T17:54:41.869Z,4.06
2023-03-27T17:57:09.895Z,3.97
2023-03-27T17:59:38.797Z,3.95
2023-03-27T18:02:06.935Z,3.92
2023-03-27T18:04:34.598Z,3.85
2023-03-27T18:07:02.718Z,3.63
2023-03-27T18:09:30.351Z,3.59
2023-03-27T18:12:01.229Z,3.49
2023-03-27T18:14:28.851Z,3.56
2023-03-27T18:16:58.403Z,3.49
2023-03-27T18:19:28.484Z,3.52
2023-03-27T18:21:57.136Z,3.53
2023-03-27T18:24:24.923Z,3.66
2023-03-27T18:26:53.159Z,3.87
2023-03-27T18:29:20.744Z,3.94
2023-03-27T18:31:49.127Z,3.91
2023-03-27T18:34:19.088Z,3.80
2023-03-27T18:36:47.533Z,3.80
2023-03-27T18:39:15.220Z,3.88
2023-03-27T18:41:46.058Z,3.80
2023-03-27T18:44:14.391Z,3.90
2023-03-27T18:46:42.261Z,3.72
2023-03-27T18:49:21.485Z,3.80
2023-03-27T18:51:56.178Z,3.69
2023-03-27T18:54:23.714Z,3.21
2023-03-27T18:56:51.700Z,3.03
2023-03-27T18:59:19.138Z,3.19
2023-03-27T19:01:47.937Z,3.30
2023-03-27T19:04:17.333Z,3.37
2023-03-27T19:06:45.544Z,3.33
2023-03-27T19:09:15.161Z,3.19
2023-03-27T19:11:43.288Z,3.23
2023-03-27T19:14:10.846Z,3.22
2023-03-27T19:16:39.004Z,3.39
2023-03-27T19:19:06.666Z,3.36
2023-03-27T19:21:34.837Z,3.41
2023-03-27T19:24:02.529Z,3.34
2023-03-27T19:26:34.586Z,3.37
2023-03-27T19:29:02.268Z,3.31
2023-03-27T19:31:33.125Z,3.39
2023-03-27T19:34:00.968Z,3.43
2023-03-27T19:36:32.942Z,3.47
2023-03-27T19:39:00.716Z,3.35
2023-03-27T19:41:28.738Z,3.10
2023-03-27T19:44:00.131Z,2.94
2023-03-27T19:46:28.605Z,2.87
2023-03-27T19:48:56.754Z,3.03
2023-03-27T19:51:27.884Z,3.10
2023-03-27T19:53:55.312Z,3.23
2023-03-27T19:56:23.496Z,3.11
2023-03-27T19:58:51.417Z,2.99
2023-03-27T20:01:21.094Z,2.99
2023-03-27T20:03:53.754Z,3.05
2023-03-27T20:06:22.479Z,3.10
2023-03-27T20:08:50.307Z,3.13
2023-03-27T20:11:19.203Z,3.03
2023-03-27T20:13:56.751Z,3.03
2023-03-27T20:16:29.460Z,2.96
2023-03-27T20:18:57.578Z,2.70
2023-03-27T20:21:25.940Z,2.73
2023-03-27T20:23:53.698Z,2.66
2023-03-27T20:26:22.683Z,2.52
2023-03-27T20:28:50.560Z,2.42
2023-03-27T20:31:20.174Z,2.46
2023-03-27T20:33:49.206Z,2.47
2023-03-27T20:36:17.212Z,2.54
2023-03-27T20:38:44.669Z,2.47
2023-03-27T20:41:13.142Z,2.53
2023-03-27T20:43:40.526Z,2.48
2023-03-27T20:46:08.659Z,2.42
2023-03-27T20:48:36.219Z,2.49
2023-03-27T20:51:10.515Z,2.35
2023-03-27T20:53:38.068Z,2.15
2023-03-27T20:56:07.288Z,2.13
2023-03-27T20:58:36.398Z,2.00
2023-03-27T21:01:05.941Z,2.04
2023-03-27T21:03:34.898Z,1.98
2023-03-27T21:06:09.659Z,1.88
2023-03-27T21:08:37.988Z,1.86
2023-03-27T21:11:06.897Z,2.00
2023-03-27T21:13:38.116Z,1.92
2023-03-27T21:16:07.493Z,1.86
2023-03-27T21:18:35.202Z,1.81
2023-03-27T21:21:03.952Z,1.85
2023-03-27T21:23:33.165Z,1.85
2023-03-27T21:26:01.453Z,1.88
2023-03-27T21:28:29.221Z,1.87
2023-03-27T21:30:57.151Z,1.85
2023-03-27T21:33:24.582Z,1.83
2023-03-27T21:35:52.756Z,1.72
2023-03-27T21:38:20.229Z,1.57
2023-03-27T21:40:49.751Z,1.64
2023-03-27T21:43:17.232Z,1.59
2023-03-27T21:45:45.424Z,1.53
2023-03-27T21:48:13.095Z,1.49
2023-03-27T21:50:41.316Z,1.44
2023-03-27T21:53:10.735Z,1.42
2023-03-27T21:55:38.737Z,1.48
2023-03-27T21:58:07.650Z,1.49
2023-03-27T22:00:36.029Z,1.48
2023-03-27T22:03:03.494Z,1.44
2023-03-27T22:05:31.473Z,1.33
2023-03-27T22:07:58.926Z,1.41
2023-03-27T22:10:27.704Z,1.40
2023-03-27T22:12:55.523Z,1.38
2023-03-27T22:15:24.887Z,1.33
2023-03-27T22:17:52.400Z,1.33
2023-03-27T22:20:21.159Z,1.33
2023-03-27T22:22:48.826Z,1.31
2023-03-27T22:25:17.102Z,1.16
2023-03-27T22:27:44.558Z,1.05
2023-03-27T22:30:12.731Z,1.07
2023-03-27T22:32:42.148Z,0.97
2023-03-27T22:35:10.537Z,0.99
2023-03-27T22:37:38.605Z,1.08
2023-03-27T22:40:08.492Z,1.12
2023-03-27T22:42:36.093Z,1.11
2023-03-27T22:45:05.174Z,1.13
2023-03-27T22:47:32.754Z,1.10
2023-03-27T22:50:02.430Z,1.13
2023-03-27T22:52:29.787Z,1.10
2023-03-27T22:54:57.762Z,1.03
2023-03-27T22:57:25.279Z,1.05
2023-03-27T22:59:53.889Z,1.07
2023-03-27T23:02:21.409Z,1.04
2023-03-27T23:04:49.274Z,1.07
2023-03-27T23:07:18.476Z,1.12
2023-03-27T23:09:46.268Z,1.07
2023-03-27T23:12:13.770Z,1.20
2023-03-27T23:14:41.495Z,1.08
2023-03-27T23:17:09.122Z,1.06
2023-03-27T23:19:37.258Z,1.09
2023-03-27T23:22:04.722Z,1.10
2023-03-27T23:24:34.537Z,1.10
2023-03-27T23:27:01.913Z,1.02
2023-03-27T23:29:29.667Z,1.06
2023-03-27T23:31:57.206Z,1.08
2023-03-27T23:34:25.356Z,1.05
2023-03-27T23:36:52.864Z,1.07
2023-03-27T23:39:21.097Z,1.10
2023-03-27T23:41:49.974Z,1.09
2023-03-27T23:44:17.931Z,1.03
2023-03-27T23:46:45.272Z,1.06
2023-03-27T23:49:13.666Z,1.06
2023-03-27T23:51:41.294Z,1.06
2023-03-27T23:54:09.175Z,1.06
2023-03-27T23:56:36.751Z,1.10
2023-03-27T23:59:06.190Z,1.08
